San Antonio, TX

6:29 PM CDT on May 27, 2015 (GMT -0500)
San Antonio International | | Change Station
CLOSE
Current Station
Airport
Location: San Antonio,
Elevation: 794 ft
Nearby Weather Stations

Elev 794 ft 29.53 °N, 98.47 °W | Updated 38 minutes ago

Clear
Clear
88 °F
Feels Like 92 °F
N
18
Wind Variable Wind from SE

Today
High -- | Low -- °F
--% Chance of Precip.
Yesterday
High -- | Low -- °F
Precip. -- in
6:35 AM 8:26 PM
Waxing Gibbous, 71% visible
Pressure 29.92 in
Visibility 10.0 miles
Clouds Few 4300 ft
Few 25000 ft
Heat Index 92 °F
Dew Point 69 °F
Humidity 53%
Rainfall 0.00 in
Snow Depth Not available.
UV 3 out of 12
Pollen 5.70 out of 12
Air Quality Not available.
Flu Activity Sporadic
METAR KSAT 272251Z 14016KT 10SM FEW043 FEW250 31/21 A2998 RMK AO2 SLP131 T03110206

More Conditions Fewer Conditions

Pressure 29.92 in
Visibility 10.0 miles
Clouds Few 4300 ft
Few 25000 ft
Heat Index 92 °F
Dew Point 69 °F
Humidity 53%
Rainfall 0.00 in
Snow Depth Not available.
UV 3 out of 12
Pollen 5.70 out of 12
Air Quality Not available.
Flu Activity Sporadic
METAR KSAT 272251Z 14016KT 10SM FEW043 FEW250 31/21 A2998 RMK AO2 SLP131 T03110206

More Conditions Fewer Conditions

10-Day Weather Forecast

Almanac

Astronomy

May. 27, 2015 Rise Set
Actual Time
Civil Twilight
Nautical Twilight
Astronomical Twilight
Moon
Length of Visible Light
Length of Day
Tomorrow will be .
, % of the Moon is Illuminated

Today's Extremes

State Highs State Lows

Community

WunderPhotos

Upload Photos

1,824,818 photos uploaded!

WunderBlogs® & News

Nearby

Air Quality

  Air Quality AQ Index Pollutant
Not available.

Snow Depth

Station Depth Elevation

Earthquake Activity

City Distance Mag. Time & Date
Minimum magnitude displayed is 2.5.

Coastal Water Temperatures

Place Temperature

Stations

Nearby Weather Stations

Station Location Temp. Windchill Dew Point Humidity Wind Precip. Elev Updated Type